sensor_id;sensor_type;location;lat;lon;timestamp;pressure;altitude;pressure_sealevel;temperature;humidity
62976;BME280;49071;0.000;0.000;2023-03-19T06:27:28;100808.22;;;15.75;38.42
62976;BME280;49071;0.000;0.000;2023-03-19T06:30:28;100806.88;;;15.89;38.47
62976;BME280;49071;0.000;0.000;2023-03-19T06:33:28;100811.63;;;16.02;38.01
62976;BME280;49071;0.000;0.000;2023-03-19T06:36:31;100817.06;;;16.20;37.60
62976;BME280;49071;0.000;0.000;2023-03-19T06:39:31;100825.91;;;16.41;37.65
62976;BME280;49071;0.000;0.000;2023-03-19T06:42:31;100833.13;;;16.58;37.15
62976;BME280;49071;0.000;0.000;2023-03-19T06:45:32;100842.00;;;16.77;36.74
62976;BME280;49071;0.000;0.000;2023-03-19T06:48:32;100841.94;;;17.00;36.41
62976;BME280;49071;0.000;0.000;2023-03-19T06:51:33;100831.56;;;17.19;36.25
62976;BME280;49071;0.000;0.000;2023-03-19T06:54:33;100836.91;;;17.38;36.14
62976;BME280;49071;0.000;0.000;2023-03-19T06:57:33;100840.44;;;17.58;36.20
62976;BME280;49071;0.000;0.000;2023-03-19T07:00:34;100839.38;;;17.84;36.27
62976;BME280;49071;0.000;0.000;2023-03-19T07:03:34;100844.38;;;18.09;36.14
62976;BME280;49071;0.000;0.000;2023-03-19T07:06:34;100843.69;;;18.24;36.57
62976;BME280;49071;0.000;0.000;2023-03-19T07:09:34;100846.41;;;18.41;35.79
62976;BME280;49071;0.000;0.000;2023-03-19T07:12:35;100852.66;;;18.58;35.93
62976;BME280;49071;0.000;0.000;2023-03-19T07:15:35;100862.94;;;18.62;36.16
62976;BME280;49071;0.000;0.000;2023-03-19T07:18:35;100861.81;;;18.68;36.53
62976;BME280;49071;0.000;0.000;2023-03-19T07:21:35;100860.88;;;18.69;36.32
62976;BME280;49071;0.000;0.000;2023-03-19T07:24:36;100861.81;;;18.68;36.71
62976;BME280;49071;0.000;0.000;2023-03-19T07:27:36;100859.34;;;18.65;37.05
62976;BME280;49071;0.000;0.000;2023-03-19T07:30:36;100861.03;;;18.66;37.12
62976;BME280;49071;0.000;0.000;2023-03-19T07:33:37;100856.00;;;18.61;37.75
62976;BME280;49071;0.000;0.000;2023-03-19T07:36:37;100859.63;;;18.59;38.03
62976;BME280;49071;0.000;0.000;2023-03-19T07:39:37;100855.38;;;18.56;38.18
62976;BME280;49071;0.000;0.000;2023-03-19T07:42:38;100867.94;;;18.50;38.37
62976;BME280;49071;0.000;0.000;2023-03-19T07:45:38;100867.50;;;18.40;38.93
62976;BME280;49071;0.000;0.000;2023-03-19T07:48:38;100863.38;;;18.34;38.56
62976;BME280;49071;0.000;0.000;2023-03-19T07:51:38;100864.22;;;18.35;39.27
62976;BME280;49071;0.000;0.000;2023-03-19T07:54:38;100861.69;;;18.33;38.71
62976;BME280;49071;0.000;0.000;2023-03-19T07:57:38;100860.47;;;18.40;39.05
62976;BME280;49071;0.000;0.000;2023-03-19T08:00:39;100852.59;;;18.40;38.94
62976;BME280;49071;0.000;0.000;2023-03-19T08:03:39;100849.31;;;18.35;39.29
62976;BME280;49071;0.000;0.000;2023-03-19T08:06:40;100855.56;;;18.33;39.18
62976;BME280;49071;0.000;0.000;2023-03-19T08:09:40;100864.44;;;18.30;38.77
62976;BME280;49071;0.000;0.000;2023-03-19T08:12:40;100864.56;;;18.27;39.81
62976;BME280;49071;0.000;0.000;2023-03-19T08:15:40;100864.56;;;18.27;39.42
62976;BME280;49071;0.000;0.000;2023-03-19T08:18:41;100861.28;;;18.22;39.12
62976;BME280;49071;0.000;0.000;2023-03-19T08:21:41;100870.09;;;18.21;39.65
62976;BME280;49071;0.000;0.000;2023-03-19T08:24:41;100868.41;;;18.20;39.07
62976;BME280;49071;0.000;0.000;2023-03-19T08:27:42;100872.81;;;18.20;39.27
62976;BME280;49071;0.000;0.000;2023-03-19T08:30:42;100877.03;;;18.22;39.46
62976;BME280;49071;0.000;0.000;2023-03-19T08:33:42;100866.53;;;18.22;39.58
62976;BME280;49071;0.000;0.000;2023-03-19T08:36:42;100874.84;;;18.32;39.21
62976;BME280;49071;0.000;0.000;2023-03-19T08:39:42;100875.44;;;18.38;39.18
62976;BME280;49071;0.000;0.000;2023-03-19T08:42:43;100874.19;;;18.47;39.25
62976;BME280;49071;0.000;0.000;2023-03-19T08:45:43;100880.75;;;18.56;39.07
62976;BME280;49071;0.000;0.000;2023-03-19T08:48:43;100874.47;;;18.60;39.08
62976;BME280;49071;0.000;0.000;2023-03-19T08:51:44;100884.63;;;18.68;39.44
62976;BME280;49071;0.000;0.000;2023-03-19T08:54:44;100886.91;;;18.75;39.19
62976;BME280;49071;0.000;0.000;2023-03-19T08:57:44;100890.53;;;18.92;38.66
62976;BME280;49071;0.000;0.000;2023-03-19T09:00:44;100886.31;;;19.06;38.34
62976;BME280;49071;0.000;0.000;2023-03-19T09:03:45;100887.50;;;19.18;38.26
62976;BME280;49071;0.000;0.000;2023-03-19T09:06:45;100898.34;;;19.29;37.95
62976;BME280;49071;0.000;0.000;2023-03-19T09:09:45;100898.50;;;19.26;38.22
62976;BME280;49071;0.000;0.000;2023-03-19T09:12:45;100903.22;;;19.37;38.18
62976;BME280;49071;0.000;0.000;2023-03-19T09:15:46;100896.97;;;19.40;38.20
62976;BME280;49071;0.000;0.000;2023-03-19T09:18:46;100910.13;;;19.40;38.36
62976;BME280;49071;0.000;0.000;2023-03-19T09:21:46;100909.22;;;19.41;38.04
62976;BME280;49071;0.000;0.000;2023-03-19T09:24:47;100907.72;;;19.35;38.14
62976;BME280;49071;0.000;0.000;2023-03-19T09:27:47;100902.16;;;19.24;37.98
62976;BME280;49071;0.000;0.000;2023-03-19T09:30:47;100899.09;;;19.14;37.82
62976;BME280;49071;0.000;0.000;2023-03-19T09:33:48;100894.91;;;19.10;37.99
62976;BME280;49071;0.000;0.000;2023-03-19T09:36:48;100900.94;;;19.12;38.21
62976;BME280;49071;0.000;0.000;2023-03-19T09:39:48;100909.69;;;19.13;38.27
62976;BME280;49071;0.000;0.000;2023-03-19T09:45:49;100900.81;;;18.96;38.38
62976;BME280;49071;0.000;0.000;2023-03-19T09:48:54;100899.41;;;18.89;38.45
62976;BME280;49071;0.000;0.000;2023-03-19T09:58:32;100890.25;;;18.79;38.77
62976;BME280;49071;0.000;0.000;2023-03-19T10:01:34;100890.19;;;18.80;38.72
62976;BME280;49071;0.000;0.000;2023-03-19T10:04:38;100890.38;;;18.76;38.90
62976;BME280;49071;0.000;0.000;2023-03-19T10:17:04;100894.78;;;18.56;38.73
62976;BME280;49071;0.000;0.000;2023-03-19T10:20:09;100889.81;;;18.50;38.79
62976;BME280;49071;0.000;0.000;2023-03-19T10:26:32;100883.63;;;18.51;39.19
62976;BME280;49071;0.000;0.000;2023-03-19T10:29:34;100890.00;;;18.46;39.21
62976;BME280;49071;0.000;0.000;2023-03-19T10:32:40;100889.22;;;18.44;39.31
62976;BME280;49071;0.000;0.000;2023-03-19T10:35:44;100892.13;;;18.37;39.41
62976;BME280;49071;0.000;0.000;2023-03-19T10:38:45;100892.41;;;18.31;39.39
62976;BME280;49071;0.000;0.000;2023-03-19T10:41:56;100890.84;;;18.27;39.41
62976;BME280;49071;0.000;0.000;2023-03-19T10:48:19;100892.25;;;18.34;39.52
62976;BME280;49071;0.000;0.000;2023-03-19T10:51:25;100891.63;;;18.48;39.05
62976;BME280;49071;0.000;0.000;2023-03-19T10:54:26;100889.00;;;18.48;39.48
62976;BME280;49071;0.000;0.000;2023-03-19T10:57:27;100893.84;;;18.57;39.17
62976;BME280;49071;0.000;0.000;2023-03-19T11:00:28;100890.94;;;18.63;39.17
62976;BME280;49071;0.000;0.000;2023-03-19T11:03:35;100890.72;;;18.68;39.12
62976;BME280;49071;0.000;0.000;2023-03-19T11:06:37;100879.59;;;18.82;39.08
62976;BME280;49071;0.000;0.000;2023-03-19T11:09:42;100869.78;;;18.85;39.22
62976;BME280;49071;0.000;0.000;2023-03-19T11:12:47;100866.78;;;18.93;39.12
62976;BME280;49071;0.000;0.000;2023-03-19T11:15:56;100876.81;;;19.04;38.91
62976;BME280;49071;0.000;0.000;2023-03-19T11:18:58;100874.34;;;19.01;39.09
62976;BME280;49071;0.000;0.000;2023-03-19T11:22:06;100865.66;;;18.99;39.05
62976;BME280;49071;0.000;0.000;2023-03-19T11:25:14;100857.53;;;19.03;39.29
62976;BME280;49071;0.000;0.000;2023-03-19T11:28:15;100859.31;;;19.03;39.40
62976;BME280;49071;0.000;0.000;2023-03-19T11:41:01;100848.50;;;19.09;40.52
62976;BME280;49071;0.000;0.000;2023-03-19T11:44:08;100849.50;;;19.06;40.87
62976;BME280;49071;0.000;0.000;2023-03-19T11:50:29;100845.63;;;18.96;41.71
62976;BME280;49071;0.000;0.000;2023-03-19T11:53:37;100837.16;;;18.90;41.20
62976;BME280;49071;0.000;0.000;2023-03-19T11:56:40;100836.31;;;18.89;41.25
62976;BME280;49071;0.000;0.000;2023-03-19T11:59:43;100833.22;;;18.81;40.89
62976;BME280;49071;0.000;0.000;2023-03-19T12:02:51;100830.81;;;18.76;41.30
62976;BME280;49071;0.000;0.000;2023-03-19T12:05:58;100827.53;;;18.71;41.14
62976;BME280;49071;0.000;0.000;2023-03-19T12:12:24;100832.28;;;18.63;41.54
62976;BME280;49071;0.000;0.000;2023-03-19T12:27:53;100817.16;;;18.68;43.01
62976;BME280;49071;0.000;0.000;2023-03-19T12:37:20;100808.88;;;18.77;43.31
62976;BME280;49071;0.000;0.000;2023-03-19T12:40:25;100800.91;;;18.79;43.37
62976;BME280;49071;0.000;0.000;2023-03-19T12:43:29;100802.00;;;18.92;43.39
62976;BME280;49071;0.000;0.000;2023-03-19T12:52:36;100804.44;;;18.97;44.20
62976;BME280;49071;0.000;0.000;2023-03-19T12:55:42;100797.13;;;18.84;44.13
62976;BME280;49071;0.000;0.000;2023-03-19T12:58:52;100800.16;;;18.77;43.99
62976;BME280;49071;0.000;0.000;2023-03-19T13:08:22;100797.06;;;18.67;44.15
62976;BME280;49071;0.000;0.000;2023-03-19T13:11:43;100794.06;;;18.56;44.29
62976;BME280;49071;0.000;0.000;2023-03-19T13:21:07;100791.22;;;18.43;43.74
62976;BME280;49071;0.000;0.000;2023-03-19T13:27:30;100789.94;;;18.33;43.23
62976;BME280;49071;0.000;0.000;2023-03-19T13:30:30;100780.56;;;18.27;43.04
62976;BME280;49071;0.000;0.000;2023-03-19T13:33:32;100783.41;;;18.23;43.34
62976;BME280;49071;0.000;0.000;2023-03-19T13:36:37;100775.72;;;18.18;43.00
62976;BME280;49071;0.000;0.000;2023-03-19T13:39:38;100772.47;;;18.13;43.32
62976;BME280;49071;0.000;0.000;2023-03-19T13:42:39;100778.63;;;18.12;42.99
62976;BME280;49071;0.000;0.000;2023-03-19T13:45:41;100785.66;;;18.11;43.29
62976;BME280;49071;0.000;0.000;2023-03-19T13:51:47;100771.19;;;18.22;43.36
62976;BME280;49071;0.000;0.000;2023-03-19T13:54:50;100778.91;;;18.25;43.22
62976;BME280;49071;0.000;0.000;2023-03-19T13:58:42;100773.66;;;18.25;43.10
62976;BME280;49071;0.000;0.000;2023-03-19T14:04:27;100780.28;;;18.33;42.89
62976;BME280;49071;0.000;0.000;2023-03-19T14:07:29;100763.16;;;18.44;42.44
62976;BME280;49071;0.000;0.000;2023-03-19T14:10:35;100768.00;;;18.53;42.48
62976;BME280;49071;0.000;0.000;2023-03-19T14:13:46;100763.91;;;18.64;42.33
62976;BME280;49071;0.000;0.000;2023-03-19T14:16:47;100764.19;;;18.77;41.80
62976;BME280;49071;0.000;0.000;2023-03-19T14:19:51;100751.38;;;18.88;41.37
62976;BME280;49071;0.000;0.000;2023-03-19T14:26:15;100759.91;;;18.94;41.49
62976;BME280;49071;0.000;0.000;2023-03-19T14:29:15;100752.88;;;18.94;41.24
62976;BME280;49071;0.000;0.000;2023-03-19T14:32:16;100746.97;;;18.89;41.25
62976;BME280;49071;0.000;0.000;2023-03-19T14:35:17;100749.84;;;18.84;41.34
62976;BME280;49071;0.000;0.000;2023-03-19T14:41:22;100757.94;;;18.80;41.27
62976;BME280;49071;0.000;0.000;2023-03-19T14:53:59;100761.28;;;18.64;40.93
62976;BME280;49071;0.000;0.000;2023-03-19T14:57:04;100765.84;;;18.61;40.83
62976;BME280;49071;0.000;0.000;2023-03-19T15:00:05;100755.56;;;18.56;40.83
62976;BME280;49071;0.000;0.000;2023-03-19T15:03:17;100756.69;;;18.51;40.89
62976;BME280;49071;0.000;0.000;2023-03-19T15:06:18;100762.94;;;18.48;41.19
62976;BME280;49071;0.000;0.000;2023-03-19T15:09:19;100760.44;;;18.45;41.19
62976;BME280;49071;0.000;0.000;2023-03-19T15:12:25;100757.97;;;18.42;41.33
62976;BME280;49071;0.000;0.000;2023-03-19T15:18:48;100760.03;;;18.35;41.01
62976;BME280;49071;0.000;0.000;2023-03-19T15:21:49;100757.63;;;18.31;41.01
62976;BME280;49071;0.000;0.000;2023-03-19T15:24:49;100765.66;;;18.28;41.28
62976;BME280;49071;0.000;0.000;2023-03-19T15:28:08;100752.75;;;18.23;41.21
62976;BME280;49071;0.000;0.000;2023-03-19T15:31:09;100762.41;;;18.23;41.32
62976;BME280;49071;0.000;0.000;2023-03-19T15:34:16;100755.38;;;18.23;41.37
62976;BME280;49071;0.000;0.000;2023-03-19T15:37:16;100755.94;;;18.30;41.18
62976;BME280;49071;0.000;0.000;2023-03-19T15:40:17;100760.81;;;18.37;40.88
62976;BME280;49071;0.000;0.000;2023-03-19T15:43:19;100769.03;;;18.49;41.03
62976;BME280;49071;0.000;0.000;2023-03-19T15:46:24;100768.50;;;18.59;40.52
62976;BME280;49071;0.000;0.000;2023-03-19T15:49:27;100769.88;;;18.68;40.71
62976;BME280;49071;0.000;0.000;2023-03-19T15:52:30;100771.16;;;18.78;40.06
62976;BME280;49071;0.000;0.000;2023-03-19T15:55:32;100774.09;;;18.90;39.90
62976;BME280;49071;0.000;0.000;2023-03-19T15:58:36;100780.53;;;19.01;39.72
62976;BME280;49071;0.000;0.000;2023-03-19T16:01:37;100779.94;;;19.14;39.53
62976;BME280;49071;0.000;0.000;2023-03-19T16:04:37;100780.25;;;19.25;39.21
62976;BME280;49071;0.000;0.000;2023-03-19T16:07:41;100780.94;;;19.28;39.12
62976;BME280;49071;0.000;0.000;2023-03-19T16:10:42;100776.53;;;19.29;39.56
62976;BME280;49071;0.000;0.000;2023-03-19T16:13:53;100777.69;;;19.23;39.15
62976;BME280;49071;0.000;0.000;2023-03-19T16:17:02;100782.25;;;19.20;39.41
62976;BME280;49071;0.000;0.000;2023-03-19T16:20:12;100776.38;;;19.15;39.53
62976;BME280;49071;0.000;0.000;2023-03-19T16:23:13;100787.88;;;19.12;39.44
62976;BME280;49071;0.000;0.000;2023-03-19T16:26:18;100789.13;;;19.05;39.55
62976;BME280;49071;0.000;0.000;2023-03-19T16:29:20;100783.06;;;19.03;39.62
62976;BME280;49071;0.000;0.000;2023-03-19T16:32:25;100787.72;;;18.98;39.38
62976;BME280;49071;0.000;0.000;2023-03-19T16:35:26;100787.09;;;18.93;39.47
62976;BME280;49071;0.000;0.000;2023-03-19T16:38:27;100799.63;;;18.87;39.54
62976;BME280;49071;0.000;0.000;2023-03-19T16:41:40;100798.13;;;18.82;39.78
62976;BME280;49071;0.000;0.000;2023-03-19T16:44:40;100801.00;;;18.77;39.85
62976;BME280;49071;0.000;0.000;2023-03-19T16:47:43;100807.31;;;18.73;39.63
62976;BME280;49071;0.000;0.000;2023-03-19T16:50:43;100808.34;;;18.69;40.01
62976;BME280;49071;0.000;0.000;2023-03-19T16:53:45;100810.34;;;18.64;40.17
62976;BME280;49071;0.000;0.000;2023-03-19T16:56:47;100814.06;;;18.60;40.13
62976;BME280;49071;0.000;0.000;2023-03-19T16:59:47;100816.03;;;18.55;39.79
62976;BME280;49071;0.000;0.000;2023-03-19T17:02:47;100819.72;;;18.51;40.11
62976;BME280;49071;0.000;0.000;2023-03-19T17:05:48;100828.69;;;18.47;39.92
62976;BME280;49071;0.000;0.000;2023-03-19T17:08:48;100823.63;;;18.42;40.25
62976;BME280;49071;0.000;0.000;2023-03-19T17:11:48;100830.78;;;18.38;40.08
62976;BME280;49071;0.000;0.000;2023-03-19T17:14:49;100831.81;;;18.36;40.32
62976;BME280;49071;0.000;0.000;2023-03-19T17:17:51;100827.59;;;18.32;40.10
62976;BME280;49071;0.000;0.000;2023-03-19T17:20:57;100834.75;;;18.28;40.43
62976;BME280;49071;0.000;0.000;2023-03-19T17:24:34;100833.19;;;18.24;40.43
62976;BME280;49071;0.000;0.000;2023-03-19T17:27:27;100836.91;;;18.20;40.30
62976;BME280;49071;0.000;0.000;2023-03-19T17:30:27;100841.34;;;18.18;40.24
62976;BME280;49071;0.000;0.000;2023-03-19T17:33:28;100838.00;;;18.14;40.19
62976;BME280;49071;0.000;0.000;2023-03-19T17:36:29;100838.16;;;18.11;40.53
62976;BME280;49071;0.000;0.000;2023-03-19T17:39:29;100840.72;;;18.13;40.59
62976;BME280;49071;0.000;0.000;2023-03-19T17:42:30;100835.38;;;18.14;40.53
62976;BME280;49071;0.000;0.000;2023-03-19T17:45:32;100841.22;;;18.21;40.17
62976;BME280;49071;0.000;0.000;2023-03-19T17:48:32;100839.97;;;18.30;40.11
62976;BME280;49071;0.000;0.000;2023-03-19T17:51:32;100835.91;;;18.41;40.27
62976;BME280;49071;0.000;0.000;2023-03-19T17:54:32;100838.13;;;18.51;39.69
62976;BME280;49071;0.000;0.000;2023-03-19T17:57:33;100839.94;;;18.68;39.48
62976;BME280;49071;0.000;0.000;2023-03-19T18:00:33;100842.75;;;18.83;39.08
62976;BME280;49071;0.000;0.000;2023-03-19T18:03:33;100842.75;;;18.83;39.39
62976;BME280;49071;0.000;0.000;2023-03-19T18:06:35;100842.44;;;18.90;39.36
62976;BME280;49071;0.000;0.000;2023-03-19T18:09:38;100842.44;;;18.90;39.31
62976;BME280;49071;0.000;0.000;2023-03-19T18:12:38;100836.47;;;18.86;39.42
62976;BME280;49071;0.000;0.000;2023-03-19T18:15:39;100832.25;;;18.83;39.35
62976;BME280;49071;0.000;0.000;2023-03-19T18:18:40;100844.50;;;18.83;39.62
62976;BME280;49071;0.000;0.000;2023-03-19T18:21:40;100841.03;;;18.82;39.45
62976;BME280;49071;0.000;0.000;2023-03-19T18:24:41;100847.22;;;18.81;39.82
62976;BME280;49071;0.000;0.000;2023-03-19T18:27:41;100858.56;;;18.82;39.62
62976;BME280;49071;0.000;0.000;2023-03-19T18:30:41;100846.28;;;18.82;39.73
62976;BME280;49071;0.000;0.000;2023-03-19T18:33:43;100853.47;;;18.79;39.78
62976;BME280;49071;0.000;0.000;2023-03-19T18:36:45;100850.97;;;18.76;39.64
62976;BME280;49071;0.000;0.000;2023-03-19T18:39:45;100850.13;;;18.75;39.98
62976;BME280;49071;0.000;0.000;2023-03-19T18:42:46;100861.56;;;18.74;39.67
62976;BME280;49071;0.000;0.000;2023-03-19T18:45:50;100860.72;;;18.74;39.84
62976;BME280;49071;0.000;0.000;2023-03-19T18:48:53;100857.31;;;18.72;39.65
62976;BME280;49071;0.000;0.000;2023-03-19T18:51:53;100853.09;;;18.68;40.05
62976;BME280;49071;0.000;0.000;2023-03-19T18:54:54;100855.78;;;18.66;39.99
62976;BME280;49071;0.000;0.000;2023-03-19T18:57:56;100861.03;;;18.66;40.35
62976;BME280;49071;0.000;0.000;2023-03-19T19:00:58;100859.47;;;18.62;40.45
62976;BME280;49071;0.000;0.000;2023-03-19T19:04:00;100860.63;;;18.56;40.67
62976;BME280;49071;0.000;0.000;2023-03-19T19:07:00;100861.53;;;18.55;40.78
62976;BME280;49071;0.000;0.000;2023-03-19T19:10:00;100866.91;;;18.52;40.76
62976;BME280;49071;0.000;0.000;2023-03-19T19:13:05;100865.31;;;18.50;40.73
62976;BME280;49071;0.000;0.000;2023-03-19T19:16:05;100871.41;;;18.50;41.32
62976;BME280;49071;0.000;0.000;2023-03-19T19:19:13;100870.63;;;18.48;41.00
62976;BME280;49071;0.000;0.000;2023-03-19T19:22:16;100873.38;;;18.45;40.96
62976;BME280;49071;0.000;0.000;2023-03-19T19:25:17;100866.56;;;18.41;40.99
62976;BME280;49071;0.000;0.000;2023-03-19T19:28:19;100869.28;;;18.39;41.01
62976;BME280;49071;0.000;0.000;2023-03-19T19:31:21;100874.53;;;18.39;41.40
62976;BME280;49071;0.000;0.000;2023-03-19T19:34:23;100868.41;;;18.39;41.10
62976;BME280;49071;0.000;0.000;2023-03-19T19:37:23;100876.44;;;18.36;41.14
62976;BME280;49071;0.000;0.000;2023-03-19T19:40:26;100876.44;;;18.36;41.35
62976;BME280;49071;0.000;0.000;2023-03-19T19:43:27;100869.47;;;18.35;41.49
62976;BME280;49071;0.000;0.000;2023-03-19T19:46:29;100875.56;;;18.35;41.45
62976;BME280;49071;0.000;0.000;2023-03-19T19:49:30;100879.06;;;18.36;41.58
62976;BME280;49071;0.000;0.000;2023-03-19T19:52:30;100878.00;;;18.40;41.54
62976;BME280;49071;0.000;0.000;2023-03-19T19:55:31;100879.97;;;18.35;41.54
62976;BME280;49071;0.000;0.000;2023-03-19T19:58:31;100885.19;;;18.36;41.66
62976;BME280;49071;0.000;0.000;2023-03-19T20:01:32;100881.84;;;18.33;41.55
62976;BME280;49071;0.000;0.000;2023-03-19T20:04:32;100887.94;;;18.33;41.43
62976;BME280;49071;0.000;0.000;2023-03-19T20:07:32;100888.56;;;18.38;41.73
62976;BME280;49071;0.000;0.000;2023-03-19T20:10:32;100889.09;;;18.47;41.55
62976;BME280;49071;0.000;0.000;2023-03-19T20:13:33;100894.69;;;18.58;41.23
62976;BME280;49071;0.000;0.000;2023-03-19T20:16:33;100891.56;;;18.69;41.25
62976;BME280;49071;0.000;0.000;2023-03-19T20:19:34;100888.41;;;18.81;41.23
62976;BME280;49071;0.000;0.000;2023-03-19T20:22:35;100891.47;;;18.91;40.91
62976;BME280;49071;0.000;0.000;2023-03-19T20:25:35;100897.44;;;18.94;40.96
62976;BME280;49071;0.000;0.000;2023-03-19T20:28:36;100900.53;;;19.02;40.62
62976;BME280;49071;0.000;0.000;2023-03-19T20:31:36;100901.38;;;19.03;40.48
62976;BME280;49071;0.000;0.000;2023-03-19T20:34:37;100905.72;;;19.04;40.44
62976;BME280;49071;0.000;0.000;2023-03-19T20:37:37;100908.38;;;19.04;40.66
62976;BME280;49071;0.000;0.000;2023-03-19T20:40:47;100902.31;;;19.02;40.45
62976;BME280;49071;0.000;0.000;2023-03-19T20:43:48;100901.59;;;18.98;40.77
62976;BME280;49071;0.000;0.000;2023-03-19T20:46:49;100900.81;;;18.96;40.96
62976;BME280;49071;0.000;0.000;2023-03-19T20:49:50;100903.44;;;18.96;41.01
62976;BME280;49071;0.000;0.000;2023-03-19T20:52:52;100904.38;;;18.95;41.12
62976;BME280;49071;0.000;0.000;2023-03-19T20:55:54;100904.53;;;18.92;41.10
62976;BME280;49071;0.000;0.000;2023-03-19T20:58:54;100902.03;;;18.89;40.87
62976;BME280;49071;0.000;0.000;2023-03-19T21:01:54;100907.44;;;18.86;41.08
62976;BME280;49071;0.000;0.000;2023-03-19T21:04:55;100899.69;;;18.83;41.15
62976;BME280;49071;0.000;0.000;2023-03-19T21:07:55;100906.25;;;18.74;40.86
62976;BME280;49071;0.000;0.000;2023-03-19T21:10:56;100905.56;;;18.69;41.05
62976;BME280;49071;0.000;0.000;2023-03-19T21:13:56;100905.78;;;18.64;40.84
62976;BME280;49071;0.000;0.000;2023-03-19T21:16:57;100913.88;;;18.60;41.20
62976;BME280;49071;0.000;0.000;2023-03-19T21:19:58;100911.44;;;18.55;41.16
62976;BME280;49071;0.000;0.000;2023-03-19T21:23:06;100909.88;;;18.51;41.12
62976;BME280;49071;0.000;0.000;2023-03-19T21:26:13;100910.03;;;18.48;40.86
62976;BME280;49071;0.000;0.000;2023-03-19T21:29:19;100918.88;;;18.46;41.26
62976;BME280;49071;0.000;0.000;2023-03-19T21:32:21;100913.00;;;18.40;41.08
62976;BME280;49071;0.000;0.000;2023-03-19T21:35:23;100916.59;;;18.38;41.15
62976;BME280;49071;0.000;0.000;2023-03-19T21:38:23;100912.41;;;18.34;41.35
62976;BME280;49071;0.000;0.000;2023-03-19T21:44:23;100909.22;;;18.27;40.89
62976;BME280;49071;0.000;0.000;2023-03-19T21:47:28;100906.72;;;18.24;41.13
62976;BME280;49071;0.000;0.000;2023-03-19T21:50:28;100905.06;;;18.22;41.34
62976;BME280;49071;0.000;0.000;2023-03-19T21:53:29;100902.59;;;18.18;41.11
62976;BME280;49071;0.000;0.000;2023-03-19T21:56:29;100901.88;;;18.15;41.14
62976;BME280;49071;0.000;0.000;2023-03-19T21:59:32;100898.47;;;18.13;41.42
62976;BME280;49071;0.000;0.000;2023-03-19T22:02:40;100905.56;;;18.11;41.26
62976;BME280;49071;0.000;0.000;2023-03-19T22:05:40;100896.97;;;18.07;41.10
62976;BME280;49071;0.000;0.000;2023-03-19T22:08:40;100902.28;;;18.06;41.06
62976;BME280;49071;0.000;0.000;2023-03-19T22:11:43;100898.03;;;18.03;41.05
62976;BME280;49071;0.000;0.000;2023-03-19T22:14:44;100898.16;;;18.00;41.40
62976;BME280;49071;0.000;0.000;2023-03-19T22:17:45;100899.13;;;17.98;41.09
62976;BME280;49071;0.000;0.000;2023-03-19T22:20:47;100899.22;;;17.96;41.17
62976;BME280;49071;0.000;0.000;2023-03-19T22:23:49;100894.09;;;17.93;41.22
62976;BME280;49071;0.000;0.000;2023-03-19T22:26:49;100892.44;;;17.90;41.32
62976;BME280;49071;0.000;0.000;2023-03-19T22:29:55;100896.88;;;17.88;41.38
62976;BME280;49071;0.000;0.000;2023-03-19T22:32:56;100890.03;;;17.86;41.38
62976;BME280;49071;0.000;0.000;2023-03-19T22:35:57;100891.00;;;17.83;41.06
62976;BME280;49071;0.000;0.000;2023-03-19T22:38:57;100888.44;;;17.82;41.08
62976;BME280;49071;0.000;0.000;2023-03-19T22:41:57;100885.03;;;17.80;41.39
62976;BME280;49071;0.000;0.000;2023-03-19T22:44:57;100879.91;;;17.77;41.20
62976;BME280;49071;0.000;0.000;2023-03-19T22:47:57;100879.97;;;17.75;41.24
62976;BME280;49071;0.000;0.000;2023-03-19T22:50:58;100882.63;;;17.74;41.23
62976;BME280;49071;0.000;0.000;2023-03-19T22:53:59;100872.22;;;17.72;41.33
62976;BME280;49071;0.000;0.000;2023-03-19T22:56:59;100868.78;;;17.70;41.15
